Time;durP1;ratioP1;P1;durP2;ratioP2;P2;SDS_P1;SDS_P2;PMS_P1;PMS_P2;Temp;Humidity;BMP_temperature;BMP_pressure;BME280_temperature;BME280_humidity;BME280_pressure;Samples;Min_cycle;Max_cycle;Signal;HPM_P1;HPM_P2
2021/09/11 00:02:18;;;;;;;;;;;17.30;99.90;;;;;;8289193;28;19894;-94
2021/09/11 00:06:18;;;;;;;;;;;17.20;99.90;;;;;;8288214;28;19912;-94
2021/09/11 00:10:19;;;;;;;;;;;17.10;99.90;;;;;;8289098;28;19952;-94
2021/09/11 00:14:20;;;;;;;;;;;17.10;99.90;;;;;;8288833;28;19897;-94
2021/09/11 00:18:20;;;;;;;;;;;17.00;99.90;;;;;;8288673;28;19909;-95
2021/09/11 00:22:21;;;;;;;;;;;16.80;99.90;;;;;;8288484;28;19906;-95
2021/09/11 00:26:21;;;;;;;;;;;16.90;99.90;;;;;;8288346;28;19925;-95
2021/09/11 00:30:22;;;;;;;;;;;16.80;99.90;;;;;;8288305;28;19909;-93
2021/09/11 00:34:23;;;;;;;;;;;16.80;99.90;;;;;;8288172;28;19897;-93
2021/09/11 00:38:23;;;;;;;;;;;16.70;99.90;;;;;;8287991;28;19909;-93
2021/09/11 00:42:24;;;;;;;;;;;16.70;99.90;;;;;;8287838;28;19898;-94
2021/09/11 00:46:24;;;;;;;;;;;16.60;99.90;;;;;;8287502;28;19898;-94
2021/09/11 00:50:24;;;;;;;;;;;16.50;99.90;;;;;;8287616;28;19921;-93
2021/09/11 00:54:25;;;;;;;;;;;16.50;99.90;;;;;;8287564;28;19898;-93
2021/09/11 00:58:27;;;;;;;;;;;16.40;99.90;;;;;;8287844;28;19933;-94
2021/09/11 01:02:28;;;;;;;;;;;16.40;99.90;;;;;;8287694;28;19894;-93
2021/09/11 01:06:29;;;;;;;;;;;16.40;99.90;;;;;;8287198;28;19905;-94
2021/09/11 01:10:29;;;;;;;;;;;16.40;99.90;;;;;;8287101;28;20120;-94
2021/09/11 01:14:30;;;;;;;;;;;16.50;99.90;;;;;;8287399;28;19957;-93
2021/09/11 01:18:31;;;;;;;;;;;16.40;99.90;;;;;;8290762;28;19948;-94
2021/09/11 01:22:31;;;;;;;;;;;16.30;99.90;;;;;;8293823;28;19897;-94
2021/09/11 01:26:32;;;;;;;;;;;16.30;99.90;;;;;;8293526;28;19898;-94
2021/09/11 01:30:33;;;;;;;;;;;16.20;99.90;;;;;;8293579;28;19976;-95
2021/09/11 01:34:33;;;;;;;;;;;16.20;99.90;;;;;;8293377;28;19932;-94
2021/09/11 01:38:34;;;;;;;;;;;16.30;99.90;;;;;;8293316;28;19921;-95
2021/09/11 01:42:34;;;;;;;;;;;16.30;99.90;;;;;;8293050;28;19904;-94
2021/09/11 01:46:35;;;;;;;;;;;16.10;99.90;;;;;;8292878;28;19914;-95
2021/09/11 01:50:35;;;;;;;;;;;16.10;99.90;;;;;;8292802;28;19909;-94
2021/09/11 01:54:36;;;;;;;;;;;16.10;99.90;;;;;;8292816;28;19898;-94
2021/09/11 01:58:37;;;;;;;;;;;16.20;99.90;;;;;;8292708;28;19918;-93
2021/09/11 02:02:37;;;;;;;;;;;16.30;99.90;;;;;;8292573;28;19900;-94
2021/09/11 02:06:38;;;;;;;;;;;16.30;99.90;;;;;;8292121;28;19906;-94
2021/09/11 02:10:38;;;;;;;;;;;16.10;99.90;;;;;;8292078;28;19906;-94
2021/09/11 02:14:39;;;;;;;;;;;16.10;99.90;;;;;;8292185;28;19898;-95
2021/09/11 02:18:39;;;;;;;;;;;16.00;99.90;;;;;;8292064;28;19905;-94
2021/09/11 02:22:40;;;;;;;;;;;15.90;99.90;;;;;;8291874;28;19921;-94
2021/09/11 02:26:42;;;;;;;;;;;15.90;99.90;;;;;;8291978;28;19936;-95
2021/09/11 02:30:43;;;;;;;;;;;16.10;99.90;;;;;;8290710;28;19898;-95
2021/09/11 02:34:44;;;;;;;;;;;16.20;99.90;;;;;;8291426;28;19913;-94
2021/09/11 02:38:44;;;;;;;;;;;16.10;99.90;;;;;;8291853;28;19905;-93
2021/09/11 02:42:45;;;;;;;;;;;16.10;99.90;;;;;;8291524;28;19894;-95
2021/09/11 02:46:45;;;;;;;;;;;16.10;99.90;;;;;;8291345;28;20112;-94
2021/09/11 02:50:46;;;;;;;;;;;16.10;99.90;;;;;;8290676;28;19957;-94
2021/09/11 02:54:46;;;;;;;;;;;16.10;99.90;;;;;;8290165;28;19902;-94
2021/09/11 02:58:47;;;;;;;;;;;16.20;99.90;;;;;;8291178;28;19969;-94
2021/09/11 03:02:47;;;;;;;;;;;16.20;99.90;;;;;;8291080;28;19894;-94
2021/09/11 03:06:48;;;;;;;;;;;16.10;99.90;;;;;;8291003;28;19901;-93
2021/09/11 03:10:48;;;;;;;;;;;16.20;99.90;;;;;;8290738;28;19925;-93
2021/09/11 03:14:49;;;;;;;;;;;16.20;99.90;;;;;;8293287;23;19922;-63
2021/09/11 03:18:49;;;;;;;;;;;16.20;99.90;;;;;;8264163;28;19910;-64
2021/09/11 03:22:50;;;;;;;;;;;16.20;99.90;;;;;;8263668;28;20290;-64
2021/09/11 03:26:50;;;;;;;;;;;16.20;99.90;;;;;;8263748;28;20473;-64
2021/09/11 03:30:50;;;;;;;;;;;15.90;99.90;;;;;;8350646;23;19925;-65
2021/09/11 03:34:51;;;;;;;;;;;15.80;99.90;;;;;;8295455;28;19905;-65
2021/09/11 03:38:51;;;;;;;;;;;15.70;99.90;;;;;;8295635;28;20428;-65
2021/09/11 03:42:52;;;;;;;;;;;15.70;99.90;;;;;;8294056;28;19909;-65
2021/09/11 03:46:52;;;;;;;;;;;15.60;99.90;;;;;;8295317;28;19976;-65
2021/09/11 03:50:53;;;;;;;;;;;15.60;99.90;;;;;;8295324;28;19932;-65
2021/09/11 03:54:53;;;;;;;;;;;15.40;99.90;;;;;;8295196;28;20580;-65
2021/09/11 03:58:54;;;;;;;;;;;15.40;99.90;;;;;;8295338;28;19909;-65
2021/09/11 04:02:54;;;;;;;;;;;15.20;99.90;;;;;;8295062;28;19909;-65
2021/09/11 04:06:54;;;;;;;;;;;15.20;99.90;;;;;;8294782;28;19911;-66
2021/09/11 04:10:55;;;;;;;;;;;15.30;99.90;;;;;;8294092;28;19916;-65
2021/09/11 04:14:55;;;;;;;;;;;15.30;99.90;;;;;;8294735;28;20345;-65
2021/09/11 04:18:56;;;;;;;;;;;15.30;99.90;;;;;;8294599;28;20063;-65
2021/09/11 04:22:56;;;;;;;;;;;15.30;99.90;;;;;;8294070;28;19912;-65
2021/09/11 04:26:57;;;;;;;;;;;15.60;99.90;;;;;;8294262;28;20281;-65
2021/09/11 04:30:57;;;;;;;;;;;15.50;99.90;;;;;;8293028;28;19913;-65
2021/09/11 04:34:58;;;;;;;;;;;15.40;99.90;;;;;;8275197;28;20437;-65
2021/09/11 04:38:58;;;;;;;;;;;15.40;99.90;;;;;;8294005;28;19963;-65
2021/09/11 04:42:59;;;;;;;;;;;15.40;99.90;;;;;;8286411;28;20331;-66
2021/09/11 04:46:59;;;;;;;;;;;15.40;99.90;;;;;;8272010;28;19944;-66
2021/09/11 04:51:00;;;;;;;;;;;15.40;99.90;;;;;;8290280;28;19944;-65
2021/09/11 04:55:01;;;;;;;;;;;15.50;99.90;;;;;;8292435;28;19909;-65
2021/09/11 04:59:01;;;;;;;;;;;15.50;99.90;;;;;;8292919;28;19929;-65
2021/09/11 05:03:02;;;;;;;;;;;15.60;99.90;;;;;;8275284;28;20311;-65
2021/09/11 05:07:02;;;;;;;;;;;15.50;99.90;;;;;;8293327;28;19991;-65
2021/09/11 05:11:03;;;;;;;;;;;15.70;99.90;;;;;;8293059;28;19909;-65
2021/09/11 05:15:03;;;;;;;;;;;15.60;99.90;;;;;;8293378;28;19912;-65
2021/09/11 05:19:04;;;;;;;;;;;15.50;99.90;;;;;;8292977;28;19913;-65
2021/09/11 05:23:04;;;;;;;;;;;15.80;99.90;;;;;;8292614;28;20443;-66
2021/09/11 05:27:05;;;;;;;;;;;15.80;99.90;;;;;;8292910;28;20288;-65
2021/09/11 05:31:05;;;;;;;;;;;15.70;99.90;;;;;;8293156;28;19913;-65
2021/09/11 05:35:06;;;;;;;;;;;15.80;99.90;;;;;;8274510;28;19913;-65
2021/09/11 05:39:07;;;;;;;;;;;16.00;99.90;;;;;;8291940;28;19956;-65
2021/09/11 05:43:07;;;;;;;;;;;16.20;99.90;;;;;;8291337;28;19909;-64
2021/09/11 05:47:08;;;;;;;;;;;16.10;99.90;;;;;;8291494;28;19910;-64
2021/09/11 05:51:08;;;;;;;;;;;16.60;99.90;;;;;;8274916;28;19916;-64
2021/09/11 05:55:09;;;;;;;;;;;17.10;99.90;;;;;;8292796;28;19909;-65
2021/09/11 05:59:09;;;;;;;;;;;17.20;99.90;;;;;;8275191;28;20303;-65
2021/09/11 06:03:10;;;;;;;;;;;17.50;99.90;;;;;;8276324;28;19905;-64
2021/09/11 06:07:10;;;;;;;;;;;17.60;99.90;;;;;;8280654;28;19905;-65
2021/09/11 06:11:11;;;;;;;;;;;17.80;99.90;;;;;;8298587;28;19911;-65
2021/09/11 06:15:12;;;;;;;;;;;17.90;99.90;;;;;;8296908;28;20444;-65
2021/09/11 06:19:13;;;;;;;;;;;17.90;99.90;;;;;;8297993;28;20008;-65
2021/09/11 06:23:13;;;;;;;;;;;18.00;99.90;;;;;;8298399;28;19909;-66
2021/09/11 06:27:14;;;;;;;;;;;18.00;99.90;;;;;;8296122;28;20010;-66
2021/09/11 06:31:14;;;;;;;;;;;17.80;99.90;;;;;;8294338;28;19925;-68
2021/09/11 06:35:15;;;;;;;;;;;17.90;99.90;;;;;;8277770;28;19916;-65
2021/09/11 06:39:15;;;;;;;;;;;18.10;99.90;;;;;;8278816;28;19914;-66
2021/09/11 06:43:16;;;;;;;;;;;18.10;99.90;;;;;;8296695;28;19910;-66
2021/09/11 06:47:16;;;;;;;;;;;18.10;99.90;;;;;;8296256;28;19910;-65
2021/09/11 06:51:17;;;;;;;;;;;18.00;99.90;;;;;;8296935;28;19959;-65
2021/09/11 06:55:17;;;;;;;;;;;18.00;99.90;;;;;;8296719;28;20373;-67
2021/09/11 06:59:18;;;;;;;;;;;18.20;99.90;;;;;;8296550;28;20518;-67
2021/09/11 07:03:18;;;;;;;;;;;18.20;99.90;;;;;;8296436;28;19909;-67
2021/09/11 07:07:19;;;;;;;;;;;18.20;99.90;;;;;;8294991;28;20332;-67
2021/09/11 07:11:19;;;;;;;;;;;17.90;99.90;;;;;;8276780;28;20011;-68
2021/09/11 07:15:20;;;;;;;;;;;17.60;99.90;;;;;;8294946;28;20377;-67
2021/09/11 07:19:20;;;;;;;;;;;17.30;99.90;;;;;;8296310;28;20352;-67
2021/09/11 07:23:20;;;;;;;;;;;17.20;99.90;;;;;;8295523;28;20404;-67
2021/09/11 07:27:21;;;;;;;;;;;17.30;99.90;;;;;;8295325;28;19909;-68
2021/09/11 07:31:22;;;;;;;;;;;17.30;99.90;;;;;;8278085;28;20263;-67
2021/09/11 07:35:22;;;;;;;;;;;17.40;99.90;;;;;;8278578;28;19905;-68
2021/09/11 07:39:23;;;;;;;;;;;17.50;99.90;;;;;;8295643;28;19917;-67
2021/09/11 07:43:23;;;;;;;;;;;17.60;99.90;;;;;;8295473;28;19909;-68
2021/09/11 07:47:24;;;;;;;;;;;17.60;99.90;;;;;;8277443;28;19917;-68
2021/09/11 07:51:24;;;;;;;;;;;17.60;99.90;;;;;;8294939;28;19906;-67
2021/09/11 07:55:25;;;;;;;;;;;17.60;99.90;;;;;;8294745;28;20378;-67
2021/09/11 07:59:25;;;;;;;;;;;17.80;99.90;;;;;;8295246;28;19996;-67
2021/09/11 08:03:27;;;;;;;;;;;17.90;99.90;;;;;;8294317;28;19916;-67
2021/09/11 08:07:28;;;;;;;;;;;18.00;99.90;;;;;;8293328;28;19964;-68
2021/09/11 08:11:28;;;;;;;;;;;18.20;99.90;;;;;;8294429;28;19916;-68
2021/09/11 08:15:29;;;;;;;;;;;18.30;99.90;;;;;;8294394;28;20277;-68
2021/09/11 08:19:29;;;;;;;;;;;18.30;99.90;;;;;;8294163;28;19913;-68
2021/09/11 08:23:30;;;;;;;;;;;18.10;99.90;;;;;;8293758;28;20381;-68
2021/09/11 08:27:30;;;;;;;;;;;18.10;99.90;;;;;;8275637;28;20290;-67
2021/09/11 08:31:31;;;;;;;;;;;18.20;99.90;;;;;;8276526;28;19917;-67
2021/09/11 08:35:31;;;;;;;;;;;18.30;99.90;;;;;;8293058;28;19910;-67
2021/09/11 08:39:31;;;;;;;;;;;18.50;99.90;;;;;;8293437;28;19910;-67
2021/09/11 08:43:33;;;;;;;;;;;18.70;99.90;;;;;;8292842;28;19909;-67
2021/09/11 08:47:34;;;;;;;;;;;18.70;99.90;;;;;;8290687;28;19913;-67
2021/09/11 08:51:34;;;;;;;;;;;19.20;99.90;;;;;;8288073;28;20451;-67
2021/09/11 08:55:35;;;;;;;;;;;19.50;99.90;;;;;;8287121;28;19905;-68
2021/09/11 08:59:36;;;;;;;;;;;19.60;99.90;;;;;;8291094;28;19917;-67
2021/09/11 09:03:37;;;;;;;;;;;20.00;99.90;;;;;;8275713;28;19960;-67
2021/09/11 09:07:39;;;;;;;;;;;20.40;99.90;;;;;;8292907;28;19906;-67
2021/09/11 09:11:44;;;;;;;;;;;20.70;99.90;;;;;;8290866;28;19992;-67
2021/09/11 09:15:44;;;;;;;;;;;20.90;99.90;;;;;;8292832;28;19936;-68
2021/09/11 09:19:45;;;;;;;;;;;21.40;99.90;;;;;;8292780;28;19921;-68
2021/09/11 09:23:49;;;;;;;;;;;21.30;99.90;;;;;;8292641;28;19915;-67
2021/09/11 09:27:51;;;;;;;;;;;20.80;99.90;;;;;;8274672;28;19909;-67
2021/09/11 09:31:56;;;;;;;;;;;20.30;99.90;;;;;;8378182;23;20019;-70
2021/09/11 09:36:00;;;;;;;;;;;20.60;99.90;;;;;;8357024;28;19921;-70
2021/09/11 09:40:00;;;;;;;;;;;20.90;99.90;;;;;;8345570;28;19952;-70
2021/09/11 09:44:01;;;;;;;;;;;21.40;99.90;;;;;;8331838;28;20332;-69
2021/09/11 09:48:01;;;;;;;;;;;21.90;99.90;;;;;;8330688;28;20281;-70
2021/09/11 09:52:02;;;;;;;;;;;22.20;99.90;;;;;;8330131;28;20388;-70
2021/09/11 09:56:03;;;;;;;;;;;22.20;99.90;;;;;;8330406;28;20440;-70
2021/09/11 10:00:03;;;;;;;;;;;21.90;99.90;;;;;;8330882;28;19931;-69
2021/09/11 10:04:18;;;;;;;;;;;21.90;99.90;;;;;;8331519;28;19912;-70
2021/09/11 10:08:19;;;;;;;;;;;22.80;99.90;;;;;;8331178;28;20027;-70
2021/09/11 10:12:29;;;;;;;;;;;22.70;99.90;;;;;;8331354;28;20357;-69
2021/09/11 10:16:31;;;;;;;;;;;23.00;99.90;;;;;;8313094;28;19967;-69
2021/09/11 10:20:50;;;;;;;;;;;22.90;99.90;;;;;;8312652;28;20384;-70
2021/09/11 10:25:01;;;;;;;;;;;22.60;99.90;;;;;;8330373;28;19915;-70
2021/09/11 10:29:21;;;;;;;;;;;22.50;99.90;;;;;;8329400;28;19912;-68
2021/09/11 10:33:40;;;;;;;;;;;23.00;99.90;;;;;;8327253;28;19909;-70
2021/09/11 10:37:47;;;;;;;;;;;23.70;99.90;;;;;;8313308;28;19909;-69
2021/09/11 10:42:07;;;;;;;;;;;24.20;99.90;;;;;;8328378;28;19917;-63
2021/09/11 10:46:09;;;;;;;;;;;24.00;99.90;;;;;;8327863;28;19909;-64
2021/09/11 10:50:12;;;;;;;;;;;23.30;99.90;;;;;;8326228;28;19912;-64
2021/09/11 10:54:33;;;;;;;;;;;22.40;99.90;;;;;;8325494;28;20526;-65
2021/09/11 10:58:34;;;;;;;;;;;21.70;99.90;;;;;;8312881;28;19909;-64
2021/09/11 11:02:36;;;;;;;;;;;21.60;99.90;;;;;;8324876;28;20011;-64
2021/09/11 11:06:38;;;;;;;;;;;21.60;99.90;;;;;;8327686;28;20297;-67
2021/09/11 11:10:42;;;;;;;;;;;21.80;99.90;;;;;;8310823;28;20008;-67
2021/09/11 11:14:46;;;;;;;;;;;24.40;99.90;;;;;;8309807;28;19909;-67
2021/09/11 11:18:46;;;;;;;;;;;29.00;99.90;;;;;;8326267;28;19913;-68
2021/09/11 11:22:47;;;;;;;;;;;33.30;95.30;;;;;;8317808;28;19913;-68
2021/09/11 11:26:48;;;;;;;;;;;36.20;79.20;;;;;;8314776;28;19917;-69
2021/09/11 11:30:51;;;;;;;;;;;37.70;57.80;;;;;;8305645;28;20265;-68
2021/09/11 11:34:59;;;;;;;;;;;36.70;58.10;;;;;;8326518;28;20017;-69
2021/09/11 11:39:18;;;;;;;;;;;37.80;56.30;;;;;;8309238;28;19913;-68
2021/09/11 11:43:19;;;;;;;;;;;39.00;52.30;;;;;;8326684;28;19909;-68
2021/09/11 11:47:19;;;;;;;;;;;39.40;47.70;;;;;;8327004;28;19987;-68
2021/09/11 11:51:20;;;;;;;;;;;38.40;49.40;;;;;;8308811;28;19990;-67
2021/09/11 11:55:21;;;;;;;;;;;38.60;48.20;;;;;;8325792;28;19916;-69
2021/09/11 11:59:23;;;;;;;;;;;38.50;49.60;;;;;;8325386;28;19921;-68
2021/09/11 12:03:36;;;;;;;;;;;39.70;48.10;;;;;;8325326;28;20324;-68
2021/09/11 12:07:36;;;;;;;;;;;40.80;84.50;;;;;;8327059;28;19905;-67
2021/09/11 12:11:37;;;;;;;;;;;39.80;85.50;;;;;;8326884;28;19916;-68
2021/09/11 12:15:38;;;;;;;;;;;38.60;87.90;;;;;;8325684;28;19909;-68
2021/09/11 12:19:38;;;;;;;;;;;37.90;87.90;;;;;;8326512;28;19917;-68
2021/09/11 12:23:39;;;;;;;;;;;37.10;89.70;;;;;;8307639;28;20269;-68
2021/09/11 12:27:40;;;;;;;;;;;37.50;89.20;;;;;;8308080;28;19909;-68
2021/09/11 12:31:50;;;;;;;;;;;38.00;89.50;;;;;;8326013;28;19912;-67
2021/09/11 12:35:51;;;;;;;;;;;38.80;88.70;;;;;;8325517;28;19999;-67
2021/09/11 12:39:55;;;;;;;;;;;38.90;89.40;;;;;;8324454;28;19913;-68
2021/09/11 12:43:55;;;;;;;;;;;41.70;88.80;;;;;;8319310;28;20499;-68
2021/09/11 12:47:56;;;;;;;;;;;38.90;89.40;;;;;;8321362;28;19991;-70
2021/09/11 12:51:57;;;;;;;;;;;38.60;89.10;;;;;;8322149;28;19905;-68
2021/09/11 12:55:58;;;;;;;;;;;35.90;92.20;;;;;;8324070;28;20266;-68
2021/09/11 12:59:58;;;;;;;;;;;36.60;90.40;;;;;;8323079;28;19917;-68
2021/09/11 13:03:58;;;;;;;;;;;37.20;90.90;;;;;;8307916;28;19909;-70
2021/09/11 13:08:00;;;;;;;;;;;38.90;87.00;;;;;;8307055;28;19956;-69
2021/09/11 13:12:00;;;;;;;;;;;39.30;83.50;;;;;;8308246;28;19905;-68
2021/09/11 13:16:00;;;;;;;;;;;35.10;92.00;;;;;;8313960;28;19912;-67
2021/09/11 13:20:01;;;;;;;;;;;31.00;60.30;;;;;;8331560;28;19913;-68
2021/09/11 13:24:02;;;;;;;;;;;28.30;70.50;;;;;;8330462;28;19905;-68
2021/09/11 13:28:03;;;;;;;;;;;26.20;85.00;;;;;;8313674;28;19909;-67
2021/09/11 13:32:04;;;;;;;;;;;25.20;99.90;;;;;;8331299;28;20000;-67
2021/09/11 13:36:05;;;;;;;;;;;24.90;99.90;;;;;;8331083;28;20404;-67
2021/09/11 13:40:05;;;;;;;;;;;24.70;99.90;;;;;;8331353;28;19910;-67
2021/09/11 13:44:06;;;;;;;;;;;24.70;99.90;;;;;;8330979;28;19955;-68
2021/09/11 13:48:07;;;;;;;;;;;26.30;99.90;;;;;;8330595;28;19912;-67
2021/09/11 13:52:07;;;;;;;;;;;29.40;99.90;;;;;;8331040;28;19909;-69
2021/09/11 13:56:08;;;;;;;;;;;29.40;99.90;;;;;;8329789;28;19909;-67
2021/09/11 14:00:09;;;;;;;;;;;27.80;99.90;;;;;;8330391;28;20612;-68
2021/09/11 14:04:09;;;;;;;;;;;26.40;99.90;;;;;;8330302;28;19909;-67
2021/09/11 14:08:10;;;;;;;;;;;25.00;96.50;;;;;;8312333;28;19909;-67
2021/09/11 14:12:11;;;;;;;;;;;24.10;99.90;;;;;;8330873;28;19909;-68
2021/09/11 14:16:12;;;;;;;;;;;23.60;99.90;;;;;;8313265;28;19912;-67
2021/09/11 14:20:14;;;;;;;;;;;23.30;99.90;;;;;;8329984;28;19913;-67
2021/09/11 14:24:14;;;;;;;;;;;23.40;99.90;;;;;;8329680;28;19917;-68
2021/09/11 14:28:14;;;;;;;;;;;23.50;99.90;;;;;;8312277;28;20013;-67
2021/09/11 14:32:17;;;;;;;;;;;23.30;99.90;;;;;;8329247;28;19908;-68
2021/09/11 14:36:17;;;;;;;;;;;23.10;99.90;;;;;;8310728;28;20280;-68
2021/09/11 14:40:18;;;;;;;;;;;23.00;99.90;;;;;;8311859;28;19967;-68
2021/09/11 14:44:18;;;;;;;;;;;23.10;99.90;;;;;;8311537;28;20012;-67
2021/09/11 14:48:19;;;;;;;;;;;23.00;99.90;;;;;;8328687;28;19920;-67
2021/09/11 14:52:19;;;;;;;;;;;22.80;99.90;;;;;;8329399;28;19905;-67
2021/09/11 14:56:20;;;;;;;;;;;22.60;99.90;;;;;;8328333;28;19916;-67
2021/09/11 15:00:20;;;;;;;;;;;22.40;99.90;;;;;;8329628;28;19913;-67
2021/09/11 15:04:21;;;;;;;;;;;22.50;99.90;;;;;;8328658;28;20087;-67
2021/09/11 15:08:21;;;;;;;;;;;22.60;99.90;;;;;;8310878;28;19905;-67
2021/09/11 15:12:22;;;;;;;;;;;22.70;99.90;;;;;;8329444;28;19913;-67
2021/09/11 15:16:24;;;;;;;;;;;22.50;99.90;;;;;;8329241;28;19931;-68
2021/09/11 15:20:25;;;;;;;;;;;22.50;99.90;;;;;;8328884;28;19916;-68
2021/09/11 15:24:25;;;;;;;;;;;22.70;99.90;;;;;;8327328;28;19916;-67
2021/09/11 15:28:26;;;;;;;;;;;23.10;99.90;;;;;;8308048;28;19909;-66
2021/09/11 15:32:26;;;;;;;;;;;23.40;99.90;;;;;;8332915;23;19981;-96
2021/09/11 15:36:27;;;;;;;;;;;23.30;99.90;;;;;;8289351;28;19933;-96
2021/09/11 15:40:27;;;;;;;;;;;23.20;99.90;;;;;;8288201;28;19910;-96
2021/09/11 15:44:28;;;;;;;;;;;24.70;99.90;;;;;;8288759;28;19921;-96
2021/09/11 15:48:28;;;;;;;;;;;26.40;99.90;;;;;;8288712;28;19898;-96
2021/09/11 15:52:29;;;;;;;;;;;28.90;99.90;;;;;;8288756;28;19929;-96
2021/09/11 15:56:30;;;;;;;;;;;31.10;99.90;;;;;;8288592;28;19949;-96
2021/09/11 16:00:30;;;;;;;;;;;33.00;92.90;;;;;;8288940;28;19925;-96
2021/09/11 16:04:31;;;;;;;;;;;34.50;83.40;;;;;;8288367;28;19957;-96
2021/09/11 16:08:32;;;;;;;;;;;32.70;83.20;;;;;;8288443;28;19924;-96
2021/09/11 16:12:32;;;;;;;;;;;29.90;91.20;;;;;;8287540;28;19914;-96
2021/09/11 16:16:33;;;;;;;;;;;29.50;93.10;;;;;;8295737;23;19966;-70
2021/09/11 16:20:33;;;;;;;;;;;30.20;91.80;;;;;;8294595;28;19909;-70
2021/09/11 16:24:34;;;;;;;;;;;29.90;91.60;;;;;;8294409;28;19952;-68
2021/09/11 16:28:35;;;;;;;;;;;30.50;89.50;;;;;;8282783;28;19916;-67
2021/09/11 16:32:36;;;;;;;;;;;30.30;90.50;;;;;;8286840;28;19910;-67
2021/09/11 16:36:36;;;;;;;;;;;30.50;89.30;;;;;;8282299;28;19913;-67
2021/09/11 16:40:37;;;;;;;;;;;28.00;93.30;;;;;;8284926;28;19924;-67
2021/09/11 16:44:37;;;;;;;;;;;25.80;99.10;;;;;;8289453;28;19906;-67
2021/09/11 16:48:38;;;;;;;;;;;24.80;99.90;;;;;;8292493;28;19910;-67
2021/09/11 16:52:40;;;;;;;;;;;24.40;99.90;;;;;;8292166;28;19909;-67
2021/09/11 16:56:41;;;;;;;;;;;23.70;99.90;;;;;;8273549;28;19909;-67
2021/09/11 17:00:42;;;;;;;;;;;23.10;99.90;;;;;;8286454;28;20559;-67
2021/09/11 17:04:42;;;;;;;;;;;22.60;99.90;;;;;;8289417;28;19949;-67
2021/09/11 17:08:43;;;;;;;;;;;22.10;99.90;;;;;;8286107;28;20297;-67
2021/09/11 17:12:44;;;;;;;;;;;21.70;99.90;;;;;;8286432;28;19913;-67
2021/09/11 17:16:44;;;;;;;;;;;21.40;99.90;;;;;;8271157;28;19917;-67
2021/09/11 17:20:47;;;;;;;;;;;20.90;99.90;;;;;;8295129;28;19917;-67
2021/09/11 17:24:47;;;;;;;;;;;20.60;99.90;;;;;;8290246;28;19913;-67
2021/09/11 17:28:48;;;;;;;;;;;20.20;99.90;;;;;;8292083;28;19928;-67
2021/09/11 17:32:48;;;;;;;;;;;20.00;99.90;;;;;;8292029;28;19933;-67
2021/09/11 17:36:49;;;;;;;;;;;19.60;99.90;;;;;;8290439;28;19914;-67
2021/09/11 17:40:49;;;;;;;;;;;19.40;99.90;;;;;;8291467;28;19955;-67
2021/09/11 17:44:49;;;;;;;;;;;19.10;99.90;;;;;;8272635;28;19935;-67
2021/09/11 17:48:50;;;;;;;;;;;18.90;99.90;;;;;;8287274;28;19909;-65
2021/09/11 17:52:50;;;;;;;;;;;18.60;99.90;;;;;;8291616;28;19913;-65
2021/09/11 17:56:51;;;;;;;;;;;18.50;99.90;;;;;;8291985;28;19913;-65
2021/09/11 18:00:51;;;;;;;;;;;18.10;99.90;;;;;;8295766;28;19964;-65
2021/09/11 18:04:52;;;;;;;;;;;18.10;99.90;;;;;;8297926;28;19909;-65
2021/09/11 18:08:53;;;;;;;;;;;18.10;99.90;;;;;;8297474;28;19913;-64
2021/09/11 18:12:54;;;;;;;;;;;18.00;99.90;;;;;;8295314;28;19910;-64
2021/09/11 18:16:54;;;;;;;;;;;;;;;;;;8293177;28;19998;-64
2021/09/11 18:20:56;;;;;;;;;;;17.60;99.90;;;;;;8295873;28;20366;-64
2021/09/11 18:24:57;;;;;;;;;;;17.20;99.90;;;;;;8297745;28;19912;-65
2021/09/11 18:28:57;;;;;;;;;;;17.10;99.90;;;;;;8298119;28;20463;-65
2021/09/11 18:32:58;;;;;;;;;;;17.10;99.90;;;;;;8297230;28;19906;-65
2021/09/11 18:36:58;;;;;;;;;;;16.90;99.90;;;;;;8297579;28;19910;-65
2021/09/11 18:40:59;;;;;;;;;;;17.00;99.90;;;;;;8296553;28;19968;-64
2021/09/11 18:44:59;;;;;;;;;;;17.10;99.90;;;;;;8297673;28;20554;-65
2021/09/11 18:49:00;;;;;;;;;;;16.90;99.90;;;;;;8297125;28;19909;-64
2021/09/11 18:53:01;;;;;;;;;;;16.80;99.90;;;;;;8294650;28;20447;-65
2021/09/11 18:57:01;;;;;;;;;;;16.60;99.90;;;;;;8294643;28;20341;-64
2021/09/11 19:01:01;;;;;;;;;;;16.70;99.90;;;;;;8296210;28;19913;-64
2021/09/11 19:05:02;;;;;;;;;;;16.70;99.90;;;;;;8295833;28;19909;-64
2021/09/11 19:09:03;;;;;;;;;;;16.70;99.90;;;;;;8295515;28;19928;-64
2021/09/11 19:13:05;;;;;;;;;;;16.60;99.90;;;;;;8295785;28;19959;-64
2021/09/11 19:17:07;;;;;;;;;;;16.50;99.90;;;;;;8293601;28;20004;-65
2021/09/11 19:21:08;;;;;;;;;;;16.30;99.90;;;;;;8295356;28;19905;-64
2021/09/11 19:25:09;;;;;;;;;;;16.10;99.90;;;;;;8295535;28;19913;-64
2021/09/11 19:29:09;;;;;;;;;;;16.20;99.90;;;;;;8295621;28;20000;-64
2021/09/11 19:33:10;;;;;;;;;;;16.10;99.90;;;;;;8296167;28;19912;-64
2021/09/11 19:37:15;;;;;;;;;;;15.80;99.90;;;;;;8295679;28;19905;-64
2021/09/11 19:41:15;;;;;;;;;;;15.70;99.90;;;;;;8296006;28;19909;-64
2021/09/11 19:45:16;;;;;;;;;;;15.60;99.90;;;;;;8295596;28;19928;-65
2021/09/11 19:49:17;;;;;;;;;;;15.40;99.90;;;;;;8295172;28;19910;-65
2021/09/11 19:53:17;;;;;;;;;;;15.30;99.90;;;;;;8295675;28;19913;-64
2021/09/11 19:57:18;;;;;;;;;;;15.80;99.90;;;;;;8295000;28;19905;-64
2021/09/11 20:01:18;;;;;;;;;;;15.50;99.90;;;;;;8295357;28;19971;-64
2021/09/11 20:05:19;;;;;;;;;;;15.70;99.90;;;;;;8294989;28;19945;-65
2021/09/11 20:09:19;;;;;;;;;;;15.40;99.90;;;;;;8294881;28;19909;-65
2021/09/11 20:13:19;;;;;;;;;;;15.20;99.90;;;;;;8294973;28;20001;-65
2021/09/11 20:17:20;;;;;;;;;;;15.20;99.90;;;;;;8292432;28;19913;-64
2021/09/11 20:21:21;;;;;;;;;;;15.20;99.90;;;;;;8294556;28;20357;-64
2021/09/11 20:25:21;;;;;;;;;;;15.20;99.90;;;;;;8294262;28;19913;-64
2021/09/11 20:29:22;;;;;;;;;;;15.50;99.90;;;;;;8293891;28;19952;-64
2021/09/11 20:33:22;;;;;;;;;;;15.30;99.90;;;;;;8294407;28;19906;-64
2021/09/11 20:37:23;;;;;;;;;;;15.20;99.90;;;;;;8293449;28;19913;-65
2021/09/11 20:41:23;;;;;;;;;;;15.00;99.90;;;;;;8293555;28;20420;-64
2021/09/11 20:45:24;;;;;;;;;;;15.20;99.90;;;;;;8288951;28;19949;-64
2021/09/11 20:49:24;;;;;;;;;;;15.20;99.90;;;;;;8292888;28;19909;-64
2021/09/11 20:53:25;;;;;;;;;;;14.80;99.90;;;;;;8292957;28;19951;-65
2021/09/11 20:57:25;;;;;;;;;;;14.70;99.90;;;;;;8293822;28;19912;-64
2021/09/11 21:01:26;;;;;;;;;;;14.60;99.90;;;;;;8293837;28;19906;-64
2021/09/11 21:05:26;;;;;;;;;;;14.80;99.90;;;;;;8293736;28;19906;-65
2021/09/11 21:09:27;;;;;;;;;;;14.90;99.90;;;;;;8293371;28;20316;-64
2021/09/11 21:13:29;;;;;;;;;;;14.70;99.90;;;;;;8293719;28;19913;-64
2021/09/11 21:17:29;;;;;;;;;;;14.50;99.90;;;;;;8293512;28;20362;-64
2021/09/11 21:21:29;;;;;;;;;;;14.60;99.90;;;;;;8293823;28;19988;-64
2021/09/11 21:25:30;;;;;;;;;;;14.40;99.90;;;;;;8293570;28;19905;-64
2021/09/11 21:29:30;;;;;;;;;;;14.30;99.90;;;;;;8293466;28;19917;-64
2021/09/11 21:33:31;;;;;;;;;;;14.20;99.90;;;;;;8293145;28;19909;-64
2021/09/11 21:37:33;;;;;;;;;;;14.10;99.90;;;;;;8298202;28;19906;-64
2021/09/11 21:41:34;;;;;;;;;;;14.20;99.90;;;;;;8298992;28;19909;-64
2021/09/11 21:45:34;;;;;;;;;;;14.30;99.90;;;;;;8299600;28;19997;-64
2021/09/11 21:49:35;;;;;;;;;;;14.20;99.90;;;;;;8299050;28;19917;-64
2021/09/11 21:53:35;;;;;;;;;;;14.30;99.90;;;;;;8297533;28;20004;-64
2021/09/11 21:57:36;;;;;;;;;;;14.40;99.90;;;;;;8298828;28;19909;-64
2021/09/11 22:01:36;;;;;;;;;;;14.70;99.90;;;;;;8299140;28;19913;-64
2021/09/11 22:05:37;;;;;;;;;;;14.60;99.90;;;;;;8298404;28;20377;-64
2021/09/11 22:09:38;;;;;;;;;;;14.70;99.90;;;;;;8297408;28;19915;-64
2021/09/11 22:13:38;;;;;;;;;;;14.70;99.90;;;;;;8297612;28;19959;-64
2021/09/11 22:17:39;;;;;;;;;;;14.80;99.90;;;;;;8298155;28;19914;-64
2021/09/11 22:21:39;;;;;;;;;;;14.70;99.90;;;;;;8297071;28;20405;-64
2021/09/11 22:25:39;;;;;;;;;;;14.70;99.90;;;;;;8298144;28;19905;-64
2021/09/11 22:29:40;;;;;;;;;;;14.80;99.90;;;;;;8298013;28;19909;-64
2021/09/11 22:33:41;;;;;;;;;;;14.90;99.90;;;;;;8298004;28;19913;-64
2021/09/11 22:37:42;;;;;;;;;;;14.70;99.90;;;;;;8297335;28;19905;-64
2021/09/11 22:41:42;;;;;;;;;;;14.50;99.90;;;;;;8297711;28;19932;-64
2021/09/11 22:45:43;;;;;;;;;;;14.60;99.90;;;;;;8297198;28;19999;-64
2021/09/11 22:49:43;;;;;;;;;;;14.50;99.90;;;;;;8295690;28;19956;-64
2021/09/11 22:53:44;;;;;;;;;;;14.30;99.90;;;;;;8296930;28;19913;-64
2021/09/11 22:57:44;;;;;;;;;;;14.10;99.90;;;;;;8297621;28;19952;-64
2021/09/11 23:01:45;;;;;;;;;;;14.30;99.90;;;;;;8297221;28;19905;-64
2021/09/11 23:05:45;;;;;;;;;;;14.30;99.90;;;;;;8296856;28;20333;-64
2021/09/11 23:09:45;;;;;;;;;;;14.30;99.90;;;;;;8296544;28;19910;-64
2021/09/11 23:13:46;;;;;;;;;;;14.10;99.90;;;;;;8296834;28;19960;-64
2021/09/11 23:17:46;;;;;;;;;;;13.90;99.90;;;;;;8296436;28;19956;-64
2021/09/11 23:21:47;;;;;;;;;;;13.90;99.90;;;;;;8296450;28;20281;-64
2021/09/11 23:25:47;;;;;;;;;;;13.70;99.90;;;;;;8296152;28;19906;-64